Página principal
METAR-TAF:

METAR-TAF

Aeroportos :

Aeroporto Humberto Delgado

Lisboa, Portugal

latitude: 38-46N, longitude: 009-08W, altura: 114 m

Observação actual do tempo

O boletim foi feito há 43 minutos, às 03:00 UTC
Vento 3 kt de nor-noroeste
Temperatura 10°C
Humidade 82%
Pressão 1025 hPa
Visibilidade 10 km ou mais
Poucas nuvensa uma altura de 3000 ft

METAR: LPPT 140300Z 34003KT 9999 FEW030 10/07 Q1025

Hora: 03:43 (03:43 UTC)

Previsão

O boletim foi feito há 4 horas e 43 minutos, às 23:00 UTC
Previsão válida de 14 às 00 UTC a 15 às 06 UTC
Vento 7 kt de oes-noroeste
Visibilidade 10 km ou mais
Poucas nuvensa uma altura de 2500 ft
Tornando-se
de 14 às 18 UTC a 14 às 21 UTC
Vento 7 kt de sudoeste
Poucas nuvensa uma altura de 1500 ft
Nuvens dispersasa uma altura de 3000 ft

TAF: LPPT 132300Z 1400/1506 30007KT 9999 FEW025 BECMG 1418/1421 22007KT FEW015 SCT030

Observações e previsões do tempo de mais de 4000 aeroportos (mensagens METAR e TAF).

As estações disponíveis são os pontos amarelos e vermelhos sobre o mapa.

Mova o rato sobre o mapa para ver o nome da estação.

Depois clique no ponto para visualizar as observações e previsões meteorológicas.

Para alterar o mapa : clique nos botões verdes com uma cruz preta para aumentar o zoom; no botão verde com uma pitada de zoom; ou nas setas verdes para mapas adjacentes.


METAR-TAF: